Argo, Texas
Current Conditions -  °F | °C
As of 8:15 PM on Wednesday 17 Dec 2014 (Local Time) from KOSA Reporting Station
Overcast Overcast  
Wind Chill: 37°   Ceiling: 4400
Heat Index: 41°   Visibility: 10mi
Dew Point: 40°   Wind: 6mph
Humidity: 97%   Direction: 10°N
Pressure: 30.22"   Gusts: NA
Location:  33.1839°N, 94.8612°W
Report Text: KOSA 180215Z AUTO 01005KT 10SM SCT026 OVC044 05/05 A3022 RMK AO1 T00500045
Loading
Personal Weather Stations






























Interactive Weather Map New forecast layout! Learn more

10-Day Weather Forecast

Advertisements
Track Severe Weather on mobile